Main page
METAR-TAF:

METAR-TAF

Airports :

Jerez Airport

Jerez de la Frontera, Spain

latitude: 36-45N, longitude: 006-04W, elevation: 27 m

Current weather observation

The report was made 39 minutes ago, at 11:00 UTC
Wind 9 kt from the North, varying between North/Northwest and East/Northeast
Temperature 28°C
Humidity 48%
Pressure 1018 hPa
Visibility 10 km or more
no clouds below 1500 m and no cumulonimbus

METAR: LEJR 211100Z 01009KT 330V060 CAVOK 28/16 Q1018

Time: 13:39 (11:39 UTC)

Forecast

The report was made 5 hours and 29 minutes ago, at 06:10 UTC
Forecast valid from 21 at 06 UTC to 22 at 06 UTC
Wind 9 kt from the West
Visibility 10 km or more
no clouds below 1500 m and no cumulonimbus
Probability 40% :
Temporary
from 21 at 06 UTC to 21 at 12 UTC
Wind 10 kt from the North/Northeast

TAF: LEJR 210610Z 2106/2206 28009KT CAVOK TX31/2114Z TN16/2106Z PROB40 TEMPO 2106/2112 02010KT

Weather observations and forecasts of more than 4000 airports (METAR and TAF reports).

The available stations are represented by yellow and red dots on the map.

Hover mouse over dot to see the name of the station.

Then click to see weather observations and forecasts.

To change the map : click on the green buttons with a black cross to zoom in, on the green button with a dash to zoom out, or on the green arrows for adjacent maps.


METAR-TAF: